sensor_id;sensor_type;location;lat;lon;timestamp;P1;durP1;ratioP1;P2;durP2;ratioP2
79751;SDS011;69234;47.446;21.636;2023-07-08T00:00:00;8.20;;;8.20;;
79751;SDS011;69234;47.446;21.636;2023-07-08T00:00:41;8.40;;;8.40;;
79751;SDS011;69234;47.446;21.636;2023-07-08T00:01:14;8.47;;;8.47;;
79751;SDS011;69234;47.446;21.636;2023-07-08T00:01:49;7.73;;;7.73;;
79751;SDS011;69234;47.446;21.636;2023-07-08T00:02:20;7.07;;;7.07;;
79751;SDS011;69234;47.446;21.636;2023-07-08T00:02:51;7.90;;;7.90;;
79751;SDS011;69234;47.446;21.636;2023-07-08T00:03:23;7.67;;;7.67;;
79751;SDS011;69234;47.446;21.636;2023-07-08T00:03:54;7.57;;;7.57;;
79751;SDS011;69234;47.446;21.636;2023-07-08T00:04:25;7.77;;;7.77;;
79751;SDS011;69234;47.446;21.636;2023-07-08T00:04:57;8.07;;;8.07;;
79751;SDS011;69234;47.446;21.636;2023-07-08T00:05:27;8.37;;;8.37;;
79751;SDS011;69234;47.446;21.636;2023-07-08T00:05:58;7.63;;;7.63;;
79751;SDS011;69234;47.446;21.636;2023-07-08T00:06:29;8.10;;;8.10;;
79751;SDS011;69234;47.446;21.636;2023-07-08T00:07:00;7.87;;;7.87;;
79751;SDS011;69234;47.446;21.636;2023-07-08T00:07:31;7.97;;;7.97;;
79751;SDS011;69234;47.446;21.636;2023-07-08T00:08:02;8.23;;;8.23;;
79751;SDS011;69234;47.446;21.636;2023-07-08T00:08:33;7.73;;;7.73;;
79751;SDS011;69234;47.446;21.636;2023-07-08T00:09:07;7.70;;;7.70;;
79751;SDS011;69234;47.446;21.636;2023-07-08T00:09:41;8.13;;;8.13;;
79751;SDS011;69234;47.446;21.636;2023-07-08T00:10:50;8.50;;;8.50;;
79751;SDS011;69234;47.446;21.636;2023-07-08T00:11:22;8.27;;;8.27;;
79751;SDS011;69234;47.446;21.636;2023-07-08T00:11:53;7.50;;;7.50;;
79751;SDS011;69234;47.446;21.636;2023-07-08T00:12:24;8.03;;;8.03;;
79751;SDS011;69234;47.446;21.636;2023-07-08T00:12:56;8.07;;;8.07;;
79751;SDS011;69234;47.446;21.636;2023-07-08T00:13:28;8.40;;;8.40;;
79751;SDS011;69234;47.446;21.636;2023-07-08T00:13:59;8.10;;;8.10;;
79751;SDS011;69234;47.446;21.636;2023-07-08T00:14:30;7.93;;;7.93;;
79751;SDS011;69234;47.446;21.636;2023-07-08T00:15:01;7.93;;;7.93;;
79751;SDS011;69234;47.446;21.636;2023-07-08T00:15:32;8.57;;;8.57;;
79751;SDS011;69234;47.446;21.636;2023-07-08T00:16:03;8.63;;;8.63;;
79751;SDS011;69234;47.446;21.636;2023-07-08T00:16:34;8.57;;;8.57;;
79751;SDS011;69234;47.446;21.636;2023-07-08T00:17:10;7.97;;;7.97;;
79751;SDS011;69234;47.446;21.636;2023-07-08T00:17:43;7.97;;;7.97;;
79751;SDS011;69234;47.446;21.636;2023-07-08T00:18:15;8.07;;;8.07;;
79751;SDS011;69234;47.446;21.636;2023-07-08T00:18:49;8.27;;;8.27;;
79751;SDS011;69234;47.446;21.636;2023-07-08T00:19:20;8.20;;;8.20;;
79751;SDS011;69234;47.446;21.636;2023-07-08T00:19:53;8.23;;;8.23;;
79751;SDS011;69234;47.446;21.636;2023-07-08T00:21:12;8.00;;;8.00;;
79751;SDS011;69234;47.446;21.636;2023-07-08T00:21:45;8.43;;;8.43;;
79751;SDS011;69234;47.446;21.636;2023-07-08T00:22:16;9.23;;;9.23;;
79751;SDS011;69234;47.446;21.636;2023-07-08T00:22:47;9.03;;;9.03;;
79751;SDS011;69234;47.446;21.636;2023-07-08T00:23:20;8.33;;;8.33;;
79751;SDS011;69234;47.446;21.636;2023-07-08T00:23:53;8.03;;;8.03;;
79751;SDS011;69234;47.446;21.636;2023-07-08T00:24:25;8.37;;;8.37;;
79751;SDS011;69234;47.446;21.636;2023-07-08T00:24:56;8.77;;;8.77;;
79751;SDS011;69234;47.446;21.636;2023-07-08T00:25:27;8.33;;;8.33;;
79751;SDS011;69234;47.446;21.636;2023-07-08T00:26:00;8.43;;;8.43;;
79751;SDS011;69234;47.446;21.636;2023-07-08T00:26:31;8.33;;;8.33;;
79751;SDS011;69234;47.446;21.636;2023-07-08T00:27:04;8.43;;;8.43;;
79751;SDS011;69234;47.446;21.636;2023-07-08T00:27:35;8.80;;;8.80;;
79751;SDS011;69234;47.446;21.636;2023-07-08T00:28:10;8.77;;;8.77;;
79751;SDS011;69234;47.446;21.636;2023-07-08T00:28:45;8.83;;;8.83;;
79751;SDS011;69234;47.446;21.636;2023-07-08T00:29:17;8.30;;;8.30;;
79751;SDS011;69234;47.446;21.636;2023-07-08T00:29:48;8.43;;;8.43;;
79751;SDS011;69234;47.446;21.636;2023-07-08T00:30:21;8.30;;;8.30;;
79751;SDS011;69234;47.446;21.636;2023-07-08T00:30:59;8.17;;;8.17;;
79751;SDS011;69234;47.446;21.636;2023-07-08T00:31:30;9.17;;;9.17;;
79751;SDS011;69234;47.446;21.636;2023-07-08T00:32:07;8.73;;;8.73;;
79751;SDS011;69234;47.446;21.636;2023-07-08T00:32:43;8.20;;;8.20;;
79751;SDS011;69234;47.446;21.636;2023-07-08T00:33:14;8.33;;;8.33;;
79751;SDS011;69234;47.446;21.636;2023-07-08T00:33:46;8.67;;;8.67;;
79751;SDS011;69234;47.446;21.636;2023-07-08T00:34:17;8.63;;;8.63;;
79751;SDS011;69234;47.446;21.636;2023-07-08T00:34:48;8.53;;;8.53;;
79751;SDS011;69234;47.446;21.636;2023-07-08T00:35:20;8.40;;;8.40;;
79751;SDS011;69234;47.446;21.636;2023-07-08T00:35:56;8.00;;;8.00;;
79751;SDS011;69234;47.446;21.636;2023-07-08T00:36:27;7.97;;;7.97;;
79751;SDS011;69234;47.446;21.636;2023-07-08T00:36:58;8.30;;;8.30;;
79751;SDS011;69234;47.446;21.636;2023-07-08T00:37:29;8.17;;;8.17;;
79751;SDS011;69234;47.446;21.636;2023-07-08T00:38:01;8.20;;;8.20;;
79751;SDS011;69234;47.446;21.636;2023-07-08T00:38:57;8.53;;;8.53;;
79751;SDS011;69234;47.446;21.636;2023-07-08T00:39:28;8.33;;;8.33;;
79751;SDS011;69234;47.446;21.636;2023-07-08T00:39:59;9.23;;;9.23;;
79751;SDS011;69234;47.446;21.636;2023-07-08T00:40:31;8.80;;;8.80;;
79751;SDS011;69234;47.446;21.636;2023-07-08T00:41:37;8.37;;;8.37;;
79751;SDS011;69234;47.446;21.636;2023-07-08T00:42:21;8.57;;;8.57;;
79751;SDS011;69234;47.446;21.636;2023-07-08T00:42:56;8.50;;;8.50;;
79751;SDS011;69234;47.446;21.636;2023-07-08T00:44:16;8.90;;;8.90;;
79751;SDS011;69234;47.446;21.636;2023-07-08T00:44:47;8.37;;;8.37;;
79751;SDS011;69234;47.446;21.636;2023-07-08T00:45:31;7.90;;;7.90;;
79751;SDS011;69234;47.446;21.636;2023-07-08T00:47:08;8.30;;;8.30;;
79751;SDS011;69234;47.446;21.636;2023-07-08T00:47:42;8.33;;;8.33;;
79751;SDS011;69234;47.446;21.636;2023-07-08T00:48:18;8.47;;;8.47;;
79751;SDS011;69234;47.446;21.636;2023-07-08T00:50:21;8.37;;;8.37;;
79751;SDS011;69234;47.446;21.636;2023-07-08T00:50:52;8.60;;;8.60;;
79751;SDS011;69234;47.446;21.636;2023-07-08T00:51:23;7.93;;;7.93;;
79751;SDS011;69234;47.446;21.636;2023-07-08T00:51:54;8.40;;;8.40;;
79751;SDS011;69234;47.446;21.636;2023-07-08T00:52:26;8.47;;;8.47;;
79751;SDS011;69234;47.446;21.636;2023-07-08T00:53:53;8.27;;;8.27;;
79751;SDS011;69234;47.446;21.636;2023-07-08T00:54:24;8.07;;;8.07;;
79751;SDS011;69234;47.446;21.636;2023-07-08T00:54:59;8.67;;;8.67;;
79751;SDS011;69234;47.446;21.636;2023-07-08T00:55:38;8.27;;;8.23;;
79751;SDS011;69234;47.446;21.636;2023-07-08T00:56:10;8.33;;;8.33;;
79751;SDS011;69234;47.446;21.636;2023-07-08T00:56:57;8.40;;;8.40;;
79751;SDS011;69234;47.446;21.636;2023-07-08T00:57:36;8.40;;;8.40;;
79751;SDS011;69234;47.446;21.636;2023-07-08T00:58:15;8.90;;;8.90;;
79751;SDS011;69234;47.446;21.636;2023-07-08T00:58:51;8.83;;;8.83;;
79751;SDS011;69234;47.446;21.636;2023-07-08T00:59:35;8.87;;;8.87;;
79751;SDS011;69234;47.446;21.636;2023-07-08T01:00:15;8.73;;;8.73;;
79751;SDS011;69234;47.446;21.636;2023-07-08T01:00:47;8.50;;;8.50;;
79751;SDS011;69234;47.446;21.636;2023-07-08T01:01:20;9.03;;;9.03;;
79751;SDS011;69234;47.446;21.636;2023-07-08T01:01:51;8.43;;;8.43;;
79751;SDS011;69234;47.446;21.636;2023-07-08T01:02:26;8.67;;;8.67;;
79751;SDS011;69234;47.446;21.636;2023-07-08T01:02:59;8.47;;;8.47;;
79751;SDS011;69234;47.446;21.636;2023-07-08T01:03:30;8.23;;;8.23;;
79751;SDS011;69234;47.446;21.636;2023-07-08T01:04:09;8.00;;;8.00;;
79751;SDS011;69234;47.446;21.636;2023-07-08T01:05:02;7.70;;;7.70;;
79751;SDS011;69234;47.446;21.636;2023-07-08T01:05:42;7.57;;;7.57;;
79751;SDS011;69234;47.446;21.636;2023-07-08T01:06:14;8.37;;;8.37;;
79751;SDS011;69234;47.446;21.636;2023-07-08T01:06:47;8.67;;;8.67;;
79751;SDS011;69234;47.446;21.636;2023-07-08T01:07:27;8.57;;;8.57;;
79751;SDS011;69234;47.446;21.636;2023-07-08T01:08:03;8.50;;;8.50;;
79751;SDS011;69234;47.446;21.636;2023-07-08T01:08:36;8.57;;;8.57;;
79751;SDS011;69234;47.446;21.636;2023-07-08T01:09:08;8.37;;;8.37;;
79751;SDS011;69234;47.446;21.636;2023-07-08T01:09:44;8.23;;;8.23;;
79751;SDS011;69234;47.446;21.636;2023-07-08T01:10:20;8.50;;;8.50;;
79751;SDS011;69234;47.446;21.636;2023-07-08T01:11:02;8.27;;;8.27;;
79751;SDS011;69234;47.446;21.636;2023-07-08T01:11:35;7.90;;;7.90;;
79751;SDS011;69234;47.446;21.636;2023-07-08T01:12:12;8.00;;;8.00;;
79751;SDS011;69234;47.446;21.636;2023-07-08T01:12:50;8.53;;;8.53;;
79751;SDS011;69234;47.446;21.636;2023-07-08T01:13:28;8.33;;;8.33;;
79751;SDS011;69234;47.446;21.636;2023-07-08T01:14:11;8.53;;;8.53;;
79751;SDS011;69234;47.446;21.636;2023-07-08T01:14:48;8.40;;;8.40;;
79751;SDS011;69234;47.446;21.636;2023-07-08T01:15:25;8.77;;;8.77;;
79751;SDS011;69234;47.446;21.636;2023-07-08T01:16:06;7.97;;;7.97;;
79751;SDS011;69234;47.446;21.636;2023-07-08T01:16:38;8.80;;;8.80;;
79751;SDS011;69234;47.446;21.636;2023-07-08T01:17:12;8.43;;;8.43;;
79751;SDS011;69234;47.446;21.636;2023-07-08T01:17:44;8.10;;;8.10;;
79751;SDS011;69234;47.446;21.636;2023-07-08T01:18:17;8.10;;;8.10;;
79751;SDS011;69234;47.446;21.636;2023-07-08T01:18:54;7.57;;;7.57;;
79751;SDS011;69234;47.446;21.636;2023-07-08T01:19:27;7.80;;;7.80;;
79751;SDS011;69234;47.446;21.636;2023-07-08T01:20:04;7.73;;;7.73;;
79751;SDS011;69234;47.446;21.636;2023-07-08T01:20:39;8.47;;;8.47;;
79751;SDS011;69234;47.446;21.636;2023-07-08T01:22:02;8.43;;;8.43;;
79751;SDS011;69234;47.446;21.636;2023-07-08T01:22:35;7.93;;;7.93;;
79751;SDS011;69234;47.446;21.636;2023-07-08T01:23:07;8.30;;;8.30;;
79751;SDS011;69234;47.446;21.636;2023-07-08T01:23:41;7.80;;;7.80;;
79751;SDS011;69234;47.446;21.636;2023-07-08T01:24:12;8.33;;;8.33;;
79751;SDS011;69234;47.446;21.636;2023-07-08T01:24:43;7.93;;;7.93;;
79751;SDS011;69234;47.446;21.636;2023-07-08T01:25:16;8.00;;;8.00;;
79751;SDS011;69234;47.446;21.636;2023-07-08T01:25:47;8.20;;;8.20;;
79751;SDS011;69234;47.446;21.636;2023-07-08T01:26:20;8.33;;;8.33;;
79751;SDS011;69234;47.446;21.636;2023-07-08T01:26:55;7.63;;;7.63;;
79751;SDS011;69234;47.446;21.636;2023-07-08T01:27:27;7.87;;;7.87;;
79751;SDS011;69234;47.446;21.636;2023-07-08T01:27:58;8.20;;;8.20;;
79751;SDS011;69234;47.446;21.636;2023-07-08T01:28:30;7.67;;;7.67;;
79751;SDS011;69234;47.446;21.636;2023-07-08T01:29:02;8.23;;;8.23;;
79751;SDS011;69234;47.446;21.636;2023-07-08T01:29:34;8.60;;;8.60;;
79751;SDS011;69234;47.446;21.636;2023-07-08T01:30:05;8.17;;;8.17;;
79751;SDS011;69234;47.446;21.636;2023-07-08T01:30:38;7.83;;;7.83;;
79751;SDS011;69234;47.446;21.636;2023-07-08T01:31:13;8.40;;;8.40;;
79751;SDS011;69234;47.446;21.636;2023-07-08T01:31:45;9.37;;;9.37;;
79751;SDS011;69234;47.446;21.636;2023-07-08T01:32:18;8.53;;;8.53;;
79751;SDS011;69234;47.446;21.636;2023-07-08T01:32:50;7.93;;;7.93;;
79751;SDS011;69234;47.446;21.636;2023-07-08T01:33:27;8.47;;;8.47;;
79751;SDS011;69234;47.446;21.636;2023-07-08T01:33:59;8.23;;;8.23;;
79751;SDS011;69234;47.446;21.636;2023-07-08T01:34:31;8.13;;;8.13;;
79751;SDS011;69234;47.446;21.636;2023-07-08T01:35:05;8.30;;;8.30;;
79751;SDS011;69234;47.446;21.636;2023-07-08T01:35:39;8.17;;;8.17;;
79751;SDS011;69234;47.446;21.636;2023-07-08T01:36:10;8.17;;;8.17;;
79751;SDS011;69234;47.446;21.636;2023-07-08T01:36:43;7.97;;;7.97;;
79751;SDS011;69234;47.446;21.636;2023-07-08T01:37:19;7.63;;;7.63;;
79751;SDS011;69234;47.446;21.636;2023-07-08T01:37:54;7.53;;;7.53;;
79751;SDS011;69234;47.446;21.636;2023-07-08T01:38:30;7.73;;;7.73;;
79751;SDS011;69234;47.446;21.636;2023-07-08T01:39:02;8.27;;;8.27;;
79751;SDS011;69234;47.446;21.636;2023-07-08T01:39:34;8.10;;;8.10;;
79751;SDS011;69234;47.446;21.636;2023-07-08T01:40:23;8.17;;;8.17;;
79751;SDS011;69234;47.446;21.636;2023-07-08T01:41:01;7.53;;;7.53;;
79751;SDS011;69234;47.446;21.636;2023-07-08T01:41:32;8.07;;;8.07;;
79751;SDS011;69234;47.446;21.636;2023-07-08T01:42:03;7.83;;;7.83;;
79751;SDS011;69234;47.446;21.636;2023-07-08T01:42:34;7.97;;;7.97;;
79751;SDS011;69234;47.446;21.636;2023-07-08T01:43:05;7.73;;;7.73;;
79751;SDS011;69234;47.446;21.636;2023-07-08T01:43:36;8.27;;;8.27;;
79751;SDS011;69234;47.446;21.636;2023-07-08T01:44:21;8.03;;;8.03;;
79751;SDS011;69234;47.446;21.636;2023-07-08T01:45:00;7.60;;;7.60;;
79751;SDS011;69234;47.446;21.636;2023-07-08T01:45:33;8.00;;;8.00;;
79751;SDS011;69234;47.446;21.636;2023-07-08T01:46:18;8.10;;;8.10;;
79751;SDS011;69234;47.446;21.636;2023-07-08T01:46:54;8.20;;;8.20;;
79751;SDS011;69234;47.446;21.636;2023-07-08T01:47:46;8.43;;;8.43;;
79751;SDS011;69234;47.446;21.636;2023-07-08T01:48:26;7.90;;;7.90;;
79751;SDS011;69234;47.446;21.636;2023-07-08T01:49:10;8.17;;;8.17;;
79751;SDS011;69234;47.446;21.636;2023-07-08T01:49:41;8.23;;;8.23;;
79751;SDS011;69234;47.446;21.636;2023-07-08T01:50:15;7.47;;;7.47;;
79751;SDS011;69234;47.446;21.636;2023-07-08T01:50:47;7.50;;;7.50;;
79751;SDS011;69234;47.446;21.636;2023-07-08T01:51:26;7.93;;;7.93;;
79751;SDS011;69234;47.446;21.636;2023-07-08T01:51:58;7.63;;;7.63;;
79751;SDS011;69234;47.446;21.636;2023-07-08T01:52:30;7.87;;;7.87;;
79751;SDS011;69234;47.446;21.636;2023-07-08T01:53:02;8.27;;;8.27;;
79751;SDS011;69234;47.446;21.636;2023-07-08T01:53:42;7.77;;;7.77;;
79751;SDS011;69234;47.446;21.636;2023-07-08T01:54:13;7.57;;;7.57;;
79751;SDS011;69234;47.446;21.636;2023-07-08T01:54:44;7.57;;;7.57;;
79751;SDS011;69234;47.446;21.636;2023-07-08T01:55:15;8.20;;;8.20;;
79751;SDS011;69234;47.446;21.636;2023-07-08T01:55:53;7.57;;;7.57;;
79751;SDS011;69234;47.446;21.636;2023-07-08T01:56:24;7.13;;;7.13;;
79751;SDS011;69234;47.446;21.636;2023-07-08T01:56:56;7.57;;;7.57;;
79751;SDS011;69234;47.446;21.636;2023-07-08T01:57:28;7.27;;;7.27;;
79751;SDS011;69234;47.446;21.636;2023-07-08T01:57:58;7.47;;;7.47;;
79751;SDS011;69234;47.446;21.636;2023-07-08T01:58:29;7.50;;;7.50;;
79751;SDS011;69234;47.446;21.636;2023-07-08T01:59:01;7.23;;;7.23;;
79751;SDS011;69234;47.446;21.636;2023-07-08T01:59:31;8.00;;;8.00;;
79751;SDS011;69234;47.446;21.636;2023-07-08T02:00:02;7.60;;;7.60;;
79751;SDS011;69234;47.446;21.636;2023-07-08T02:00:43;7.20;;;7.13;;
79751;SDS011;69234;47.446;21.636;2023-07-08T02:01:14;7.40;;;7.40;;
79751;SDS011;69234;47.446;21.636;2023-07-08T02:01:45;8.07;;;8.07;;
79751;SDS011;69234;47.446;21.636;2023-07-08T02:02:17;7.20;;;7.20;;
79751;SDS011;69234;47.446;21.636;2023-07-08T02:02:49;6.93;;;6.93;;
79751;SDS011;69234;47.446;21.636;2023-07-08T02:03:21;7.30;;;7.30;;
79751;SDS011;69234;47.446;21.636;2023-07-08T02:03:52;7.67;;;7.67;;
79751;SDS011;69234;47.446;21.636;2023-07-08T02:04:25;7.27;;;7.27;;
79751;SDS011;69234;47.446;21.636;2023-07-08T02:04:57;7.30;;;7.30;;
79751;SDS011;69234;47.446;21.636;2023-07-08T02:05:27;7.10;;;7.10;;
79751;SDS011;69234;47.446;21.636;2023-07-08T02:05:58;7.10;;;7.10;;
79751;SDS011;69234;47.446;21.636;2023-07-08T02:06:29;7.57;;;7.57;;
79751;SDS011;69234;47.446;21.636;2023-07-08T02:07:10;8.07;;;8.07;;
79751;SDS011;69234;47.446;21.636;2023-07-08T02:07:41;7.57;;;7.57;;
79751;SDS011;69234;47.446;21.636;2023-07-08T02:08:12;7.27;;;7.27;;
79751;SDS011;69234;47.446;21.636;2023-07-08T02:08:43;7.77;;;7.77;;
79751;SDS011;69234;47.446;21.636;2023-07-08T02:09:14;8.30;;;8.30;;
79751;SDS011;69234;47.446;21.636;2023-07-08T02:09:44;8.30;;;8.30;;
79751;SDS011;69234;47.446;21.636;2023-07-08T02:10:15;7.37;;;7.37;;
79751;SDS011;69234;47.446;21.636;2023-07-08T02:10:51;6.57;;;6.57;;
79751;SDS011;69234;47.446;21.636;2023-07-08T02:11:24;7.37;;;7.37;;
79751;SDS011;69234;47.446;21.636;2023-07-08T02:11:56;7.57;;;7.57;;
79751;SDS011;69234;47.446;21.636;2023-07-08T02:12:26;7.07;;;7.07;;
79751;SDS011;69234;47.446;21.636;2023-07-08T02:12:57;7.40;;;7.40;;
79751;SDS011;69234;47.446;21.636;2023-07-08T02:13:28;7.60;;;7.60;;
79751;SDS011;69234;47.446;21.636;2023-07-08T02:14:00;7.13;;;7.13;;
79751;SDS011;69234;47.446;21.636;2023-07-08T02:14:31;8.03;;;8.03;;
79751;SDS011;69234;47.446;21.636;2023-07-08T02:15:02;7.83;;;7.83;;
79751;SDS011;69234;47.446;21.636;2023-07-08T02:15:34;7.47;;;7.47;;
79751;SDS011;69234;47.446;21.636;2023-07-08T02:16:08;7.97;;;7.97;;
79751;SDS011;69234;47.446;21.636;2023-07-08T02:16:39;7.53;;;7.53;;
79751;SDS011;69234;47.446;21.636;2023-07-08T02:17:10;7.27;;;7.27;;
79751;SDS011;69234;47.446;21.636;2023-07-08T02:17:41;7.33;;;7.33;;
79751;SDS011;69234;47.446;21.636;2023-07-08T02:18:11;7.17;;;7.17;;
79751;SDS011;69234;47.446;21.636;2023-07-08T02:18:42;7.70;;;7.70;;
79751;SDS011;69234;47.446;21.636;2023-07-08T02:19:13;7.60;;;7.60;;
79751;SDS011;69234;47.446;21.636;2023-07-08T02:19:44;7.50;;;7.50;;
79751;SDS011;69234;47.446;21.636;2023-07-08T02:20:15;7.50;;;7.50;;
79751;SDS011;69234;47.446;21.636;2023-07-08T02:20:46;7.63;;;7.63;;
79751;SDS011;69234;47.446;21.636;2023-07-08T02:21:17;7.17;;;7.17;;
79751;SDS011;69234;47.446;21.636;2023-07-08T02:21:49;7.43;;;7.43;;
79751;SDS011;69234;47.446;21.636;2023-07-08T02:22:22;7.27;;;7.27;;
79751;SDS011;69234;47.446;21.636;2023-07-08T02:22:54;6.90;;;6.90;;
79751;SDS011;69234;47.446;21.636;2023-07-08T02:23:25;6.87;;;6.87;;
79751;SDS011;69234;47.446;21.636;2023-07-08T02:24:02;7.80;;;7.80;;
79751;SDS011;69234;47.446;21.636;2023-07-08T02:24:34;7.23;;;7.23;;
79751;SDS011;69234;47.446;21.636;2023-07-08T02:25:05;7.40;;;7.40;;
79751;SDS011;69234;47.446;21.636;2023-07-08T02:25:36;7.40;;;7.40;;
79751;SDS011;69234;47.446;21.636;2023-07-08T02:26:07;7.23;;;7.23;;
79751;SDS011;69234;47.446;21.636;2023-07-08T02:26:38;7.17;;;7.17;;
79751;SDS011;69234;47.446;21.636;2023-07-08T02:27:09;6.80;;;6.80;;
79751;SDS011;69234;47.446;21.636;2023-07-08T02:27:40;7.00;;;7.00;;
79751;SDS011;69234;47.446;21.636;2023-07-08T02:28:11;7.10;;;7.10;;
79751;SDS011;69234;47.446;21.636;2023-07-08T02:28:42;7.50;;;7.50;;
79751;SDS011;69234;47.446;21.636;2023-07-08T02:29:13;7.53;;;7.53;;
79751;SDS011;69234;47.446;21.636;2023-07-08T02:29:44;7.63;;;7.63;;
79751;SDS011;69234;47.446;21.636;2023-07-08T02:30:15;6.90;;;6.90;;
79751;SDS011;69234;47.446;21.636;2023-07-08T02:30:46;7.57;;;7.57;;
79751;SDS011;69234;47.446;21.636;2023-07-08T02:31:16;7.43;;;7.43;;
79751;SDS011;69234;47.446;21.636;2023-07-08T02:31:47;7.30;;;7.30;;
79751;SDS011;69234;47.446;21.636;2023-07-08T02:32:18;7.47;;;7.47;;
79751;SDS011;69234;47.446;21.636;2023-07-08T02:32:49;7.20;;;7.20;;
79751;SDS011;69234;47.446;21.636;2023-07-08T02:33:27;6.70;;;6.70;;
79751;SDS011;69234;47.446;21.636;2023-07-08T02:34:02;7.10;;;7.10;;
79751;SDS011;69234;47.446;21.636;2023-07-08T02:34:33;7.57;;;7.57;;
79751;SDS011;69234;47.446;21.636;2023-07-08T02:35:05;7.00;;;7.00;;
79751;SDS011;69234;47.446;21.636;2023-07-08T02:35:38;6.77;;;6.77;;
79751;SDS011;69234;47.446;21.636;2023-07-08T02:36:09;7.20;;;7.20;;
79751;SDS011;69234;47.446;21.636;2023-07-08T02:36:40;6.83;;;6.83;;
79751;SDS011;69234;47.446;21.636;2023-07-08T02:37:11;6.90;;;6.90;;
79751;SDS011;69234;47.446;21.636;2023-07-08T02:37:42;7.20;;;7.20;;
79751;SDS011;69234;47.446;21.636;2023-07-08T02:38:13;7.20;;;7.17;;
79751;SDS011;69234;47.446;21.636;2023-07-08T02:38:44;6.83;;;6.83;;
79751;SDS011;69234;47.446;21.636;2023-07-08T02:39:15;7.27;;;7.27;;
79751;SDS011;69234;47.446;21.636;2023-07-08T02:39:46;6.63;;;6.63;;
79751;SDS011;69234;47.446;21.636;2023-07-08T02:40:17;6.73;;;6.73;;
79751;SDS011;69234;47.446;21.636;2023-07-08T02:40:49;7.70;;;7.70;;
79751;SDS011;69234;47.446;21.636;2023-07-08T02:41:19;7.20;;;7.20;;
79751;SDS011;69234;47.446;21.636;2023-07-08T02:41:50;6.60;;;6.60;;
79751;SDS011;69234;47.446;21.636;2023-07-08T02:42:21;6.70;;;6.70;;
79751;SDS011;69234;47.446;21.636;2023-07-08T02:42:52;7.13;;;7.13;;
79751;SDS011;69234;47.446;21.636;2023-07-08T02:43:23;7.17;;;7.17;;
79751;SDS011;69234;47.446;21.636;2023-07-08T02:43:54;7.63;;;7.63;;
79751;SDS011;69234;47.446;21.636;2023-07-08T02:44:25;7.67;;;7.67;;
79751;SDS011;69234;47.446;21.636;2023-07-08T02:44:57;7.30;;;7.30;;
79751;SDS011;69234;47.446;21.636;2023-07-08T02:45:28;7.70;;;7.70;;
79751;SDS011;69234;47.446;21.636;2023-07-08T02:45:59;7.07;;;7.07;;
79751;SDS011;69234;47.446;21.636;2023-07-08T02:46:29;7.37;;;7.33;;
79751;SDS011;69234;47.446;21.636;2023-07-08T02:47:00;7.03;;;7.03;;
79751;SDS011;69234;47.446;21.636;2023-07-08T02:47:31;7.10;;;7.10;;
79751;SDS011;69234;47.446;21.636;2023-07-08T02:48:02;6.93;;;6.93;;
79751;SDS011;69234;47.446;21.636;2023-07-08T02:48:35;7.07;;;7.07;;
79751;SDS011;69234;47.446;21.636;2023-07-08T02:49:06;7.40;;;7.40;;
79751;SDS011;69234;47.446;21.636;2023-07-08T02:49:37;7.10;;;7.10;;
79751;SDS011;69234;47.446;21.636;2023-07-08T02:50:08;7.20;;;7.20;;
79751;SDS011;69234;47.446;21.636;2023-07-08T02:50:41;7.60;;;7.60;;
79751;SDS011;69234;47.446;21.636;2023-07-08T02:51:11;7.50;;;7.50;;
79751;SDS011;69234;47.446;21.636;2023-07-08T02:51:42;7.53;;;7.53;;
79751;SDS011;69234;47.446;21.636;2023-07-08T02:52:13;7.53;;;7.53;;
79751;SDS011;69234;47.446;21.636;2023-07-08T02:52:44;7.47;;;7.47;;
79751;SDS011;69234;47.446;21.636;2023-07-08T02:53:15;7.40;;;7.40;;
79751;SDS011;69234;47.446;21.636;2023-07-08T02:53:47;7.10;;;7.10;;
79751;SDS011;69234;47.446;21.636;2023-07-08T02:54:19;7.50;;;7.50;;
79751;SDS011;69234;47.446;21.636;2023-07-08T02:54:50;7.03;;;7.03;;
79751;SDS011;69234;47.446;21.636;2023-07-08T02:55:21;7.13;;;7.13;;
79751;SDS011;69234;47.446;21.636;2023-07-08T02:55:52;6.97;;;6.97;;
79751;SDS011;69234;47.446;21.636;2023-07-08T02:56:23;6.73;;;6.73;;
79751;SDS011;69234;47.446;21.636;2023-07-08T02:56:56;6.97;;;6.97;;
79751;SDS011;69234;47.446;21.636;2023-07-08T02:57:27;6.87;;;6.87;;
79751;SDS011;69234;47.446;21.636;2023-07-08T02:57:58;7.30;;;7.30;;
79751;SDS011;69234;47.446;21.636;2023-07-08T02:58:29;7.23;;;7.23;;
79751;SDS011;69234;47.446;21.636;2023-07-08T02:59:00;7.60;;;7.60;;
79751;SDS011;69234;47.446;21.636;2023-07-08T02:59:31;6.97;;;6.97;;
79751;SDS011;69234;47.446;21.636;2023-07-08T03:00:02;6.57;;;6.57;;
79751;SDS011;69234;47.446;21.636;2023-07-08T03:00:37;7.53;;;7.53;;
79751;SDS011;69234;47.446;21.636;2023-07-08T03:01:08;7.37;;;7.37;;
79751;SDS011;69234;47.446;21.636;2023-07-08T03:01:39;7.47;;;7.47;;
79751;SDS011;69234;47.446;21.636;2023-07-08T03:02:13;7.03;;;7.03;;
79751;SDS011;69234;47.446;21.636;2023-07-08T03:02:45;7.13;;;7.13;;
79751;SDS011;69234;47.446;21.636;2023-07-08T03:03:17;7.27;;;7.27;;
79751;SDS011;69234;47.446;21.636;2023-07-08T03:03:49;6.90;;;6.90;;
79751;SDS011;69234;47.446;21.636;2023-07-08T03:04:20;7.63;;;7.63;;
79751;SDS011;69234;47.446;21.636;2023-07-08T03:04:52;8.07;;;8.07;;
79751;SDS011;69234;47.446;21.636;2023-07-08T03:05:24;7.13;;;7.13;;
79751;SDS011;69234;47.446;21.636;2023-07-08T03:05:56;6.87;;;6.87;;
79751;SDS011;69234;47.446;21.636;2023-07-08T03:06:30;6.50;;;6.50;;
79751;SDS011;69234;47.446;21.636;2023-07-08T03:07:03;6.87;;;6.83;;
79751;SDS011;69234;47.446;21.636;2023-07-08T03:07:34;7.20;;;7.20;;
79751;SDS011;69234;47.446;21.636;2023-07-08T03:08:05;6.67;;;6.67;;
79751;SDS011;69234;47.446;21.636;2023-07-08T03:08:36;6.27;;;6.27;;
79751;SDS011;69234;47.446;21.636;2023-07-08T03:09:07;6.47;;;6.47;;
79751;SDS011;69234;47.446;21.636;2023-07-08T03:09:40;7.30;;;7.30;;
79751;SDS011;69234;47.446;21.636;2023-07-08T03:10:12;7.73;;;7.73;;
79751;SDS011;69234;47.446;21.636;2023-07-08T03:10:45;7.20;;;7.20;;
79751;SDS011;69234;47.446;21.636;2023-07-08T03:11:19;7.87;;;7.87;;
79751;SDS011;69234;47.446;21.636;2023-07-08T03:11:50;6.97;;;6.97;;
79751;SDS011;69234;47.446;21.636;2023-07-08T03:12:21;6.83;;;6.83;;
79751;SDS011;69234;47.446;21.636;2023-07-08T03:12:52;7.23;;;7.23;;
79751;SDS011;69234;47.446;21.636;2023-07-08T03:13:23;7.07;;;7.07;;
79751;SDS011;69234;47.446;21.636;2023-07-08T03:13:54;6.73;;;6.73;;
79751;SDS011;69234;47.446;21.636;2023-07-08T03:14:25;6.97;;;6.97;;
79751;SDS011;69234;47.446;21.636;2023-07-08T03:14:57;7.27;;;7.27;;
79751;SDS011;69234;47.446;21.636;2023-07-08T03:15:28;7.67;;;7.67;;
79751;SDS011;69234;47.446;21.636;2023-07-08T03:15:59;7.23;;;7.23;;
79751;SDS011;69234;47.446;21.636;2023-07-08T03:16:33;7.10;;;7.10;;
79751;SDS011;69234;47.446;21.636;2023-07-08T03:17:04;7.13;;;7.13;;
79751;SDS011;69234;47.446;21.636;2023-07-08T03:17:35;7.10;;;7.10;;
79751;SDS011;69234;47.446;21.636;2023-07-08T03:18:06;7.10;;;7.10;;
79751;SDS011;69234;47.446;21.636;2023-07-08T03:18:38;6.97;;;6.97;;
79751;SDS011;69234;47.446;21.636;2023-07-08T03:19:17;7.33;;;7.33;;
79751;SDS011;69234;47.446;21.636;2023-07-08T03:19:48;6.67;;;6.67;;
79751;SDS011;69234;47.446;21.636;2023-07-08T03:20:20;6.53;;;6.53;;
79751;SDS011;69234;47.446;21.636;2023-07-08T03:20:54;6.57;;;6.57;;
79751;SDS011;69234;47.446;21.636;2023-07-08T03:21:28;6.77;;;6.77;;
79751;SDS011;69234;47.446;21.636;2023-07-08T03:21:59;7.20;;;7.20;;
79751;SDS011;69234;47.446;21.636;2023-07-08T03:22:33;6.80;;;6.80;;